Time;durP1;ratioP1;P1;durP2;ratioP2;P2;SDS_P1;SDS_P2;PMS_P1;PMS_P2;Temp;Humidity;BMP_temperature;BMP_pressure;BME280_temperature;BME280_humidity;BME280_pressure;Samples;Min_cycle;Max_cycle;Signal;HPM_P1;HPM_P2
2021/01/26 00:00:09;;;;;;;94.93;36.53;;;-0.90;93.20;;;;;;5030062;28;20107;-64
2021/01/26 00:02:35;;;;;;;102.57;39.40;;;-1.00;93.20;;;;;;5028328;28;20033;-63
2021/01/26 00:05:01;;;;;;;101.20;38.37;;;-1.00;93.30;;;;;;5030203;28;20095;-65
2021/01/26 00:07:27;;;;;;;96.50;37.97;;;-0.90;93.40;;;;;;5029754;28;20049;-65
2021/01/26 00:09:53;;;;;;;96.87;38.73;;;-1.00;93.30;;;;;;5028717;28;20044;-64
2021/01/26 00:12:19;;;;;;;91.47;37.63;;;-0.90;93.40;;;;;;5011947;28;20057;-64
2021/01/26 00:14:44;;;;;;;86.83;36.47;;;-0.90;93.30;;;;;;5012112;28;20045;-65
2021/01/26 00:17:10;;;;;;;74.53;33.20;;;-1.00;93.30;;;;;;5013613;28;20148;-64
2021/01/26 00:19:35;;;;;;;81.17;33.03;;;-1.00;93.20;;;;;;5033959;28;20045;-64
2021/01/26 00:22:01;;;;;;;73.70;31.90;;;-1.00;93.10;;;;;;5032516;28;20038;-62
2021/01/26 00:24:27;;;;;;;85.13;34.50;;;-1.10;93.10;;;;;;5034476;28;20036;-64
2021/01/26 00:26:52;;;;;;;78.10;32.57;;;-1.10;93.10;;;;;;5016203;28;20037;-65
2021/01/26 00:29:18;;;;;;;73.07;32.67;;;-1.20;93.10;;;;;;5033031;28;20033;-64
2021/01/26 00:31:44;;;;;;;78.13;33.20;;;-1.20;93.00;;;;;;5033191;28;20037;-64
2021/01/26 00:34:09;;;;;;;71.47;31.07;;;-1.20;93.10;;;;;;5000355;28;20091;-63
2021/01/26 00:36:35;;;;;;;71.20;31.00;;;-1.30;93.10;;;;;;5033064;28;20034;-65
2021/01/26 00:39:01;;;;;;;79.87;32.30;;;-1.30;93.10;;;;;;5033594;28;20068;-65
2021/01/26 00:41:26;;;;;;;73.87;30.83;;;-1.30;93.30;;;;;;5015584;28;20033;-65
2021/01/26 00:43:52;;;;;;;77.50;31.87;;;-1.30;93.40;;;;;;5032542;28;20034;-68
2021/01/26 00:46:18;;;;;;;81.40;32.97;;;-1.30;93.30;;;;;;5032752;28;20128;-63
2021/01/26 00:48:43;;;;;;;77.73;33.60;;;-1.30;93.30;;;;;;5032629;28;20049;-64
2021/01/26 00:51:09;;;;;;;79.97;33.30;;;-1.30;93.20;;;;;;5032894;28;20037;-62
2021/01/26 00:53:35;;;;;;;75.63;32.23;;;-1.30;93.10;;;;;;5032516;28;20037;-65
2021/01/26 00:56:06;;;;;;;82.93;34.10;;;-1.40;93.00;;;;;;5016602;28;20037;-64
2021/01/26 00:58:33;;;;;;;76.47;32.77;;;-1.40;93.10;;;;;;5032504;28;20038;-65
2021/01/26 01:00:59;;;;;;;77.83;32.73;;;-1.40;93.10;;;;;;5015204;28;20485;-64
2021/01/26 01:03:28;;;;;;;75.17;32.33;;;-1.40;93.00;;;;;;5033491;28;20468;-62
2021/01/26 01:05:54;;;;;;;74.27;33.00;;;-1.40;93.00;;;;;;5032349;28;20045;-64
2021/01/26 01:08:20;;;;;;;79.10;33.50;;;-1.50;93.00;;;;;;5031979;28;20041;-64
2021/01/26 01:10:46;;;;;;;86.37;34.53;;;-1.50;93.00;;;;;;5032952;28;20132;-64
2021/01/26 01:13:12;;;;;;;85.60;34.07;;;-1.50;93.20;;;;;;5032363;28;20108;-64
2021/01/26 01:15:39;;;;;;;78.43;34.10;;;-1.50;93.30;;;;;;5033117;28;20453;-64
2021/01/26 01:18:06;;;;;;;80.57;35.33;;;-1.50;93.20;;;;;;5032093;28;20033;-64
2021/01/26 01:20:31;;;;;;;84.57;35.30;;;-1.50;93.20;;;;;;5033183;28;20121;-63
2021/01/26 01:22:57;;;;;;;77.80;33.27;;;-1.50;93.30;;;;;;5031342;28;20459;-64
2021/01/26 01:25:23;;;;;;;68.93;30.70;;;-1.50;93.30;;;;;;5033385;28;20512;-65
2021/01/26 01:27:49;;;;;;;85.90;35.37;;;-1.50;93.20;;;;;;5031612;28;20124;-64
2021/01/26 01:30:20;;;;;;;83.90;34.80;;;-1.60;93.10;;;;;;5032083;28;20029;-64
2021/01/26 01:32:46;;;;;;;79.03;34.73;;;-1.60;93.20;;;;;;5032769;28;20060;-65
2021/01/26 01:35:12;;;;;;;79.47;33.53;;;-1.60;93.30;;;;;;5033157;28;20501;-65
2021/01/26 01:37:38;;;;;;;82.03;34.33;;;-1.60;93.20;;;;;;5031840;28;20402;-63
2021/01/26 01:40:05;;;;;;;74.20;33.50;;;-1.70;93.10;;;;;;5032244;28;20034;-64
2021/01/26 01:42:31;;;;;;;81.17;34.30;;;-1.70;93.10;;;;;;5031457;28;20030;-64
2021/01/26 01:44:57;;;;;;;75.77;33.80;;;-1.70;93.10;;;;;;5015024;28;20381;-65
2021/01/26 01:47:43;;;;;;;88.13;33.47;;;-1.80;93.10;;;;;;5032943;28;20037;-64
2021/01/26 01:50:25;;;;;;;78.63;33.93;;;-1.80;93.30;;;;;;5030627;28;20073;-63
2021/01/26 01:53:14;;;;;;;78.17;32.60;;;-1.80;93.10;;;;;;5032678;28;20037;-64
2021/01/26 01:55:48;;;;;;;85.10;34.63;;;-1.80;93.10;;;;;;5032045;28;20498;-64
2021/01/26 01:58:24;;;;;;;75.83;32.47;;;-1.90;93.10;;;;;;5032839;28;20033;-64
2021/01/26 02:00:56;;;;;;;84.03;33.87;;;-1.90;93.10;;;;;;5030246;28;20105;-64
2021/01/26 02:03:26;;;;;;;76.97;31.90;;;-2.00;93.10;;;;;;5032169;28;20048;-65
2021/01/26 02:05:55;;;;;;;83.22;34.67;;;-1.90;93.10;;;;;;5031565;28;20038;-64
2021/01/26 02:08:39;;;;;;;85.13;34.40;;;-2.00;93.10;;;;;;5031991;28;20112;-63
2021/01/26 02:11:05;;;;;;;82.93;33.80;;;-2.00;93.10;;;;;;5030999;28;20033;-65
2021/01/26 02:13:31;;;;;;;83.47;35.00;;;-2.00;93.10;;;;;;5032010;28;20374;-63
2021/01/26 02:16:00;;;;;;;79.80;35.43;;;-2.00;93.10;;;;;;5031357;28;20406;-64
2021/01/26 02:18:51;;;;;;;81.10;33.43;;;-2.00;93.10;;;;;;5032135;28;20389;-64
2021/01/26 02:21:32;;;;;;;;;;;-2.00;93.10;;;;;;5031849;28;20045;-64
2021/01/26 02:24:41;;;;;;;79.80;33.42;;;-2.00;93.20;;;;;;5032287;28;19921;-64
2021/01/26 02:27:21;;;;;;;91.53;36.10;;;-2.00;93.20;;;;;;5003306;28;20128;-64
2021/01/26 02:30:11;;;;;;;92.85;34.53;;;-2.00;93.40;;;;;;5030542;28;20406;-64
2021/01/26 02:33:09;;;;;;;84.80;34.90;;;-2.00;93.10;;;;;;5031553;28;20044;-64
2021/01/26 02:35:40;;;;;;;78.17;31.43;;;-2.00;93.20;;;;;;5028155;28;20087;-65
2021/01/26 02:38:15;;;;;;;85.30;34.53;;;-2.00;93.20;;;;;;5031528;28;20060;-64
2021/01/26 02:40:58;;;;;;;88.57;37.63;;;-2.10;93.30;;;;;;5030274;28;20397;-64
2021/01/26 02:43:39;;;;;;;93.73;37.50;;;-2.00;93.50;;;;;;5031400;28;20690;-63
2021/01/26 02:46:31;;;;;;;90.60;37.03;;;-2.00;93.80;;;;;;5030884;28;20124;-64
2021/01/26 02:49:24;;;;;;;77.40;35.70;;;-1.80;94.20;;;;;;5029092;28;20387;-64
2021/01/26 02:51:55;;;;;;;68.03;32.17;;;-1.70;94.30;;;;;;5024183;28;20037;-64
2021/01/26 02:54:39;;;;;;;59.17;30.67;;;-1.50;94.40;;;;;;5031015;28;20520;-64
2021/01/26 02:57:14;;;;;;;55.17;27.93;;;-1.40;94.30;;;;;;5030551;28;20406;-64
2021/01/26 02:59:49;;;;;;;54.33;27.97;;;-1.30;94.40;;;;;;5029628;28;20037;-64
2021/01/26 03:02:24;;;;;;;57.77;30.37;;;-1.20;94.40;;;;;;5028659;28;20486;-64
2021/01/26 03:04:58;;;;;;;58.10;29.63;;;-1.10;94.30;;;;;;5030922;28;20044;-64
2021/01/26 03:07:27;;;;;;;56.43;30.13;;;-1.00;94.30;;;;;;5029237;28;20037;-64
2021/01/26 03:09:59;;;;;;;61.73;29.97;;;-1.00;94.30;;;;;;5030509;28;20060;-64
2021/01/26 03:12:30;;;;;;;55.17;28.23;;;-0.90;94.30;;;;;;5029909;28;20525;-64
2021/01/26 03:15:04;;;;;;;52.15;28.73;;;-0.80;94.30;;;;;;5030834;28;20034;-65
2021/01/26 03:17:41;;;;;;;51.07;27.97;;;-0.80;94.30;;;;;;5029258;28;20041;-64
2021/01/26 03:20:28;;;;;;;61.73;31.57;;;-0.70;94.30;;;;;;5030228;28;20038;-64
2021/01/26 03:22:58;;;;;;;62.00;31.90;;;-0.60;94.30;;;;;;5030019;28;20041;-65
2021/01/26 03:25:26;;;;;;;52.93;29.00;;;-0.60;94.40;;;;;;5030588;28;20037;-62
2021/01/26 03:28:01;;;;;;;52.40;27.53;;;-0.50;94.40;;;;;;5030020;28;20033;-65
2021/01/26 03:30:32;;;;;;;51.97;26.73;;;-0.40;94.30;;;;;;5030469;28;20061;-64
2021/01/26 03:33:04;;;;;;;51.50;27.43;;;-0.40;94.30;;;;;;5030128;28;20041;-63
2021/01/26 03:35:30;;;;;;;51.57;26.93;;;-0.40;94.20;;;;;;5031195;28;20099;-64
2021/01/26 03:38:02;;;;;;;51.50;27.20;;;-0.30;94.20;;;;;;5029326;28;20485;-64
2021/01/26 03:40:27;;;;;;;50.70;26.83;;;-0.30;94.20;;;;;;5030629;28;20516;-65
2021/01/26 03:42:53;;;;;;;52.80;27.33;;;-0.30;94.10;;;;;;5029033;28;20042;-64
2021/01/26 03:45:19;;;;;;;46.77;25.37;;;-0.20;94.10;;;;;;5029572;28;20026;-63
2021/01/26 03:48:05;;;;;;;51.80;27.40;;;-0.20;94.10;;;;;;5029364;28;20420;-63
2021/01/26 03:50:51;;;;;;;55.17;28.40;;;-0.20;94.10;;;;;;5029660;28;20107;-65
2021/01/26 03:53:45;;;;;;;52.80;27.73;;;-0.10;94.10;;;;;;5036105;28;20061;-64
2021/01/26 03:56:32;;;;;;;50.70;27.87;;;-0.10;94.00;;;;;;5037019;28;20037;-65
2021/01/26 03:59:15;;;;;;;53.83;28.37;;;-0.20;93.80;;;;;;5036614;28;20456;-64
2021/01/26 04:01:52;;;;;;;54.27;30.13;;;-0.20;93.80;;;;;;5034372;28;20045;-65
2021/01/26 04:05:00;;;;;;;57.43;30.00;;;-0.20;93.90;;;;;;5035588;28;20029;-64
2021/01/26 04:07:41;;;;;;;60.33;30.33;;;-0.20;93.80;;;;;;5034040;28;20041;-64
2021/01/26 04:10:24;;;;;;;58.97;30.42;;;-0.20;93.80;;;;;;5036565;28;20057;-65
2021/01/26 04:12:57;;;;;;;56.13;29.13;;;-0.20;94.00;;;;;;5036237;28;20041;-64
2021/01/26 04:15:45;;;;;;;58.80;30.50;;;-0.20;94.10;;;;;;5037011;28;20129;-63
2021/01/26 04:18:13;;;;;;;55.43;28.27;;;-0.10;94.10;;;;;;5034972;28;20041;-63
2021/01/26 04:20:41;;;;;;;61.30;30.53;;;-0.10;94.10;;;;;;5036586;28;20110;-64
2021/01/26 04:23:07;;;;;;;57.70;30.17;;;-0.10;94.10;;;;;;5036908;28;20099;-64
2021/01/26 04:25:40;;;;;;;57.80;30.77;;;-0.10;94.10;;;;;;5037267;28;20044;-64
2021/01/26 04:28:13;;;;;;;55.67;30.33;;;-0.10;94.10;;;;;;5037294;28;20041;-64
2021/01/26 04:30:40;;;;;;;51.47;28.57;;;0.00;94.10;;;;;;5036117;28;20037;-64
2021/01/26 04:33:12;;;;;;;57.17;28.20;;;0.00;94.10;;;;;;5037097;28;20600;-64
2021/01/26 04:35:38;;;;;;;55.37;30.40;;;0.00;94.20;;;;;;5035506;28;20064;-65
2021/01/26 04:38:04;;;;;;;53.30;29.60;;;0.00;94.20;;;;;;5036119;28;20037;-64
2021/01/26 04:40:32;;;;;;;51.73;28.97;;;0.10;94.20;;;;;;5036313;28;20068;-67
2021/01/26 04:43:10;;;;;;;56.47;31.37;;;0.10;94.10;;;;;;5036897;28;20045;-62
2021/01/26 04:46:03;;;;;;;53.07;30.03;;;0.10;94.10;;;;;;5036680;28;20087;-64
2021/01/26 04:48:57;;;;;;;56.60;30.03;;;0.10;94.10;;;;;;5035838;28;20057;-64
2021/01/26 04:51:35;;;;;;;55.07;29.07;;;0.20;94.10;;;;;;5016134;28;20049;-64
2021/01/26 04:54:42;;;;;;;56.23;29.73;;;0.20;94.10;;;;;;5037037;28;20038;-65
2021/01/26 04:57:47;;;;;;;54.30;29.47;;;0.20;94.10;;;;;;5015308;28;20045;-64
2021/01/26 05:00:31;;;;;;;57.53;30.03;;;0.20;93.90;;;;;;5036329;28;20088;-64
2021/01/26 05:03:21;;;;;;;55.90;31.33;;;0.20;93.90;;;;;;5034949;28;20041;-68
2021/01/26 05:05:53;;;;;;;51.22;27.77;;;0.10;93.90;;;;;;5033814;28;20042;-64
2021/01/26 05:08:24;;;;;;;56.60;31.47;;;0.10;93.90;;;;;;5032153;28;20071;-64
2021/01/26 05:10:57;;;;;;;50.13;27.40;;;0.10;94.00;;;;;;5032869;28;20120;-62
2021/01/26 05:13:27;;;;;;;55.87;30.90;;;0.10;94.00;;;;;;5033486;28;20052;-64
2021/01/26 05:16:02;;;;;;;59.13;31.75;;;0.10;94.00;;;;;;5016099;28;20045;-63
2021/01/26 05:18:57;;;;;;;55.63;30.87;;;0.10;94.00;;;;;;5032107;28;20045;-63
2021/01/26 05:21:41;;;;;;;56.20;29.03;;;0.10;93.90;;;;;;5030916;28;20045;-62
2021/01/26 05:24:22;;;;;;;57.70;30.00;;;0.00;93.80;;;;;;5033591;28;20071;-65
2021/01/26 05:26:49;;;;;;;58.83;31.23;;;0.00;93.50;;;;;;5033159;28;20099;-64
2021/01/26 05:29:15;;;;;;;60.87;31.70;;;-0.10;93.50;;;;;;5032074;28;20409;-63
2021/01/26 05:31:45;;;;;;;55.53;29.87;;;-0.20;93.40;;;;;;5032100;28;20039;-64
2021/01/26 05:34:13;;;;;;;56.20;29.30;;;-0.20;93.30;;;;;;5033154;28;20033;-63
2021/01/26 05:36:42;;;;;;;65.77;32.67;;;-0.40;93.10;;;;;;5031546;28;20036;-64
2021/01/26 05:39:28;;;;;;;70.33;33.77;;;-0.40;93.10;;;;;;5033108;28;20037;-64
2021/01/26 05:41:53;;;;;;;67.83;34.03;;;-0.50;93.20;;;;;;5032034;28;20048;-64
2021/01/26 05:44:21;;;;;;;66.03;33.47;;;-0.60;93.20;;;;;;5015272;28;20429;-62
2021/01/26 05:46:47;;;;;;;72.93;34.43;;;-0.70;93.10;;;;;;5032555;28;20041;-64
2021/01/26 05:49:33;;;;;;;79.50;37.07;;;-0.80;93.00;;;;;;5032408;28;20121;-64
2021/01/26 05:52:00;;;;;;;89.53;37.03;;;-0.90;93.00;;;;;;5031734;28;20493;-64
2021/01/26 05:54:28;;;;;;;86.63;37.83;;;-0.90;93.40;;;;;;5032922;28;20042;-65
2021/01/26 05:56:56;;;;;;;93.47;41.13;;;-1.00;93.10;;;;;;5031111;28;20038;-63
2021/01/26 05:59:37;;;;;;;95.60;38.13;;;-1.00;93.10;;;;;;5032645;28;20045;-63
2021/01/26 06:02:14;;;;;;;85.77;37.57;;;-1.10;93.10;;;;;;5031627;28;20140;-66
2021/01/26 06:04:40;;;;;;;89.60;38.70;;;-1.10;93.10;;;;;;5032499;28;20510;-64
2021/01/26 06:07:20;;;;;;;86.63;38.07;;;-1.20;93.10;;;;;;5031452;28;20055;-65
2021/01/26 06:09:47;;;;;;;84.67;36.00;;;-1.20;93.20;;;;;;5030575;28;20475;-64
2021/01/26 06:12:22;;;;;;;92.37;39.00;;;-1.30;93.10;;;;;;5030812;28;20136;-70
2021/01/26 06:14:54;;;;;;;101.77;41.93;;;-1.30;93.20;;;;;;5030131;28;20045;-64
2021/01/26 06:17:23;;;;;;;82.67;35.90;;;-1.30;93.30;;;;;;5031335;28;20148;-65
2021/01/26 06:20:05;;;;;;;102.47;41.63;;;-1.40;93.10;;;;;;5031541;28;20053;-63
2021/01/26 06:22:31;;;;;;;105.20;41.50;;;-1.40;93.10;;;;;;5030942;28;20037;-65
2021/01/26 06:25:02;;;;;;;96.57;39.97;;;-1.50;93.10;;;;;;5030167;28;20395;-63
2021/01/26 06:28:01;;;;;;;99.82;42.13;;;-1.50;93.10;;;;;;5030011;28;20057;-64
2021/01/26 06:31:07;;;;;;;110.67;42.13;;;-1.50;93.20;;;;;;5029761;28;20427;-64
2021/01/26 06:33:44;;;;;;;102.63;40.00;;;-1.60;93.10;;;;;;5031073;28;20048;-65
2021/01/26 06:36:42;;;;;;;105.33;41.97;;;-1.60;93.30;;;;;;5031163;28;20033;-64
2021/01/26 06:39:21;;;;;;;109.30;42.73;;;-1.60;93.30;;;;;;5031417;28;20117;-65
2021/01/26 06:42:05;;;;;;;96.23;40.50;;;-1.60;93.30;;;;;;5029171;28;20036;-64
2021/01/26 06:44:46;;;;;;;99.40;41.20;;;-1.60;93.20;;;;;;5030163;28;20402;-63
2021/01/26 06:47:42;;;;;;;87.68;35.58;;;-1.60;93.10;;;;;;5029644;28;20137;-65
2021/01/26 06:50:56;;;;;;;95.23;39.77;;;-1.70;93.10;;;;;;5030283;28;20038;-64
2021/01/26 06:53:40;;;;;;;98.30;40.37;;;-1.70;93.10;;;;;;5021465;28;20044;-64
2021/01/26 06:56:36;;;;;;;90.80;37.70;;;-1.80;93.10;;;;;;5031067;28;20044;-64
2021/01/26 06:59:21;;;;;;;109.43;42.37;;;-1.80;93.20;;;;;;5030388;28;20048;-64
2021/01/26 07:02:05;;;;;;;100.33;41.87;;;-1.80;93.20;;;;;;5029978;28;20486;-64
2021/01/26 07:05:24;;;;;;;102.87;42.33;;;-1.90;93.20;;;;;;5031249;28;20040;-64
2021/01/26 07:08:19;;;;;;;106.50;43.37;;;-1.90;93.20;;;;;;4988330;28;20050;-64
2021/01/26 07:10:45;;;;;;;97.37;42.77;;;-1.90;93.20;;;;;;5028797;28;20045;-64
2021/01/26 07:13:28;;;;;;;110.80;48.10;;;-1.90;93.20;;;;;;5030628;28;20036;-64
2021/01/26 07:16:23;;;;;;;107.43;46.27;;;-2.00;93.20;;;;;;5030108;28;20033;-64
2021/01/26 07:19:03;;;;;;;123.73;51.37;;;-2.00;93.30;;;;;;5028724;28;20104;-65
2021/01/26 07:21:54;;;;;;;118.27;49.23;;;-1.90;93.40;;;;;;5028503;28;20105;-65
2021/01/26 07:24:41;;;;;;;109.47;47.10;;;-1.90;93.50;;;;;;5030142;28;20095;-63
2021/01/26 07:27:35;;;;;;;111.13;47.53;;;-1.80;93.70;;;;;;5029251;28;20390;-64
2021/01/26 07:30:44;;;;;;;96.40;44.63;;;-1.80;94.20;;;;;;5028626;28;20476;-64
2021/01/26 07:33:33;;;;;;;90.13;44.43;;;-1.50;94.60;;;;;;5029174;28;20037;-64
2021/01/26 07:36:07;;;;;;;82.10;41.83;;;-1.30;94.60;;;;;;5030262;28;20037;-64
2021/01/26 07:38:37;;;;;;;85.93;42.70;;;-1.20;94.60;;;;;;5024362;28;20069;-64
2021/01/26 07:41:50;;;;;;;70.90;37.63;;;-1.10;94.50;;;;;;5015258;28;20037;-63
2021/01/26 07:44:36;;;;;;;75.70;38.03;;;-1.00;94.40;;;;;;4952273;28;21159;-65
2021/01/26 07:47:23;;;;;;;66.73;33.57;;;-0.90;94.30;;;;;;5026150;28;20054;-64
2021/01/26 07:49:52;;;;;;;65.03;34.50;;;-0.80;94.40;;;;;;5026629;28;20617;-64
2021/01/26 07:52:19;;;;;;;65.20;34.00;;;-0.70;94.40;;;;;;5025459;28;20041;-64
2021/01/26 07:54:50;;;;;;;63.47;33.80;;;-0.60;94.50;;;;;;5029776;28;20042;-64
2021/01/26 07:57:17;;;;;;;63.67;33.07;;;-0.50;94.50;;;;;;5029522;28;20494;-65
2021/01/26 07:59:52;;;;;;;63.43;32.20;;;-0.40;94.50;;;;;;5028269;28;20039;-63
2021/01/26 08:02:29;;;;;;;62.40;33.07;;;-0.30;94.30;;;;;;5029753;28;20045;-65
2021/01/26 08:04:55;;;;;;;63.03;31.47;;;-0.30;94.30;;;;;;5029729;28;20041;-63
2021/01/26 08:07:28;;;;;;;56.67;29.93;;;-0.20;94.20;;;;;;5028533;28;20045;-64
2021/01/26 08:09:56;;;;;;;55.43;31.03;;;-0.20;94.10;;;;;;5030073;28;20037;-64
2021/01/26 08:12:31;;;;;;;66.87;33.57;;;-0.10;93.80;;;;;;5030031;28;20041;-65
2021/01/26 08:15:16;;;;;;;60.50;31.23;;;-0.20;93.60;;;;;;5029562;28;20041;-65
2021/01/26 08:17:43;;;;;;;59.23;32.13;;;-0.20;93.50;;;;;;5029057;28;20033;-65
2021/01/26 08:20:24;;;;;;;57.50;30.30;;;-0.20;93.70;;;;;;5028968;28;20049;-63
2021/01/26 08:23:04;;;;;;;;;;;-0.20;93.80;;;;;;5029572;28;20041;-64
2021/01/26 08:25:32;;;;;;;52.47;28.47;;;-0.20;93.90;;;;;;5029291;28;20412;-64
2021/01/26 08:27:59;;;;;;;56.83;30.77;;;-0.10;94.00;;;;;;5029711;28;20083;-64
2021/01/26 08:30:25;;;;;;;53.57;30.10;;;-0.10;93.90;;;;;;5027601;28;20117;-64
2021/01/26 08:33:17;;;;;;;59.93;31.47;;;0.00;94.00;;;;;;5029841;28;20124;-63
2021/01/26 08:36:02;;;;;;;58.00;32.17;;;0.10;94.20;;;;;;5028695;28;20671;-62
2021/01/26 08:38:43;;;;;;;59.57;31.60;;;0.30;94.40;;;;;;5031490;28;20092;-65
2021/01/26 08:41:09;;;;;;;;;;;0.60;94.90;;;;;;5033576;28;20382;-64
2021/01/26 08:43:45;;;;;;;51.27;29.40;;;1.10;95.40;;;;;;5032212;28;19909;-64
2021/01/26 08:46:39;;;;;;;42.17;26.83;;;2.00;95.90;;;;;;5033807;28;20047;-63
2021/01/26 08:49:19;;;;;;;36.93;22.90;;;3.10;95.70;;;;;;5033309;28;20042;-63
2021/01/26 08:51:46;;;;;;;36.42;22.70;;;4.50;95.40;;;;;;5031456;28;20072;-65
2021/01/26 08:54:39;;;;;;;33.77;22.07;;;5.40;94.60;;;;;;5016241;28;20042;-65
2021/01/26 08:57:26;;;;;;;32.70;21.73;;;6.10;93.20;;;;;;5031856;28;20140;-64
2021/01/26 08:59:56;;;;;;;36.17;22.50;;;6.00;91.90;;;;;;5031801;28;20037;-64
2021/01/26 09:02:36;;;;;;;38.92;24.35;;;5.70;91.70;;;;;;5033127;28;20516;-65
2021/01/26 09:05:04;;;;;;;39.63;25.07;;;5.20;91.30;;;;;;5032073;28;20121;-64
2021/01/26 09:07:46;;;;;;;42.17;26.40;;;4.60;91.20;;;;;;5033330;28;20115;-63
2021/01/26 09:10:23;;;;;;;43.87;27.00;;;4.10;91.90;;;;;;5030680;28;20037;-65
2021/01/26 09:13:09;;;;;;;44.43;27.93;;;3.80;92.30;;;;;;5031236;28;20048;-63
2021/01/26 09:15:44;;;;;;;44.63;27.87;;;3.50;92.30;;;;;;5029805;28;20049;-63
2021/01/26 09:18:15;;;;;;;47.60;28.00;;;3.30;93.10;;;;;;5025536;28;20048;-65
2021/01/26 09:20:43;;;;;;;44.65;26.90;;;3.30;93.60;;;;;;5030098;28;20075;-63
2021/01/26 09:23:10;;;;;;;45.47;27.70;;;3.30;93.50;;;;;;5032625;28;20048;-65
2021/01/26 09:25:41;;;;;;;44.33;26.13;;;3.40;93.70;;;;;;5032252;28;20064;-65
2021/01/26 09:28:13;;;;;;;43.27;27.20;;;3.50;93.80;;;;;;5032754;28;20029;-65
2021/01/26 09:30:44;;;;;;;44.70;29.10;;;3.60;93.90;;;;;;5031552;28;20033;-64
2021/01/26 09:33:10;;;;;;;41.97;26.03;;;3.70;94.00;;;;;;5031390;28;20034;-63
2021/01/26 09:35:51;;;;;;;43.57;26.97;;;3.90;94.20;;;;;;5031940;28;20509;-64
2021/01/26 09:38:17;;;;;;;43.20;27.47;;;4.00;93.60;;;;;;5032570;28;20029;-64
2021/01/26 09:40:46;;;;;;;43.67;27.13;;;3.90;92.70;;;;;;5031329;28;20639;-65
2021/01/26 09:43:20;;;;;;;44.83;28.10;;;3.60;92.40;;;;;;5032353;28;20523;-64
2021/01/26 09:45:58;;;;;;;47.23;27.97;;;3.40;92.10;;;;;;5030670;28;20044;-65
2021/01/26 09:48:33;;;;;;;47.27;28.27;;;3.10;92.20;;;;;;5032208;28;20398;-64
2021/01/26 09:51:13;;;;;;;46.00;27.90;;;3.00;92.90;;;;;;5029099;28;20052;-65
2021/01/26 09:53:40;;;;;;;49.20;28.70;;;2.90;93.20;;;;;;5039604;23;20030;-73
2021/01/26 09:56:09;;;;;;;45.83;27.70;;;3.00;93.50;;;;;;5017293;28;20054;-73
2021/01/26 09:58:35;;;;;;;46.37;28.87;;;3.10;93.50;;;;;;5012898;28;20068;-73
2021/01/26 10:01:03;;;;;;;44.97;27.83;;;3.20;93.60;;;;;;5030814;28;20111;-73
2021/01/26 10:03:30;;;;;;;48.80;28.77;;;3.30;93.80;;;;;;5045089;28;20512;-73
2021/01/26 10:05:59;;;;;;;46.50;27.93;;;3.50;93.80;;;;;;5034619;28;20033;-73
2021/01/26 10:08:33;;;;;;;43.93;28.20;;;3.60;93.50;;;;;;5051654;28;20036;-73
2021/01/26 10:11:18;;;;;;;42.93;26.93;;;3.70;93.40;;;;;;5021737;28;20421;-73
2021/01/26 10:13:45;;;;;;;43.10;26.37;;;3.70;93.10;;;;;;5048416;28;20033;-73
2021/01/26 10:16:36;;;;;;;39.73;25.17;;;3.80;93.40;;;;;;5036556;28;20029;-73
2021/01/26 10:19:20;;;;;;;45.37;26.20;;;3.80;92.90;;;;;;5038949;28;20033;-73
2021/01/26 10:21:46;;;;;;;45.63;27.43;;;3.80;92.80;;;;;;5048544;28;20061;-73
2021/01/26 10:24:33;;;;;;;41.77;26.47;;;3.90;93.10;;;;;;5037429;28;20048;-73
2021/01/26 10:27:10;;;;;;;41.63;25.83;;;3.90;92.60;;;;;;5039466;28;20317;-72
2021/01/26 10:29:42;;;;;;;43.83;25.93;;;3.90;92.70;;;;;;5048364;28;20029;-73
2021/01/26 10:32:11;;;;;;;41.53;25.97;;;3.90;92.70;;;;;;5036431;28;20033;-73
2021/01/26 10:34:49;;;;;;;41.27;25.30;;;4.00;92.70;;;;;;5042694;28;20040;-73
2021/01/26 10:37:21;;;;;;;40.87;25.53;;;4.10;93.00;;;;;;5044748;28;20389;-74
2021/01/26 10:40:03;;;;;;;39.57;23.70;;;4.40;93.20;;;;;;5035031;28;20060;-73
2021/01/26 10:42:29;;;;;;;36.70;23.07;;;4.60;92.90;;;;;;5043149;28;20072;-73
2021/01/26 10:44:56;;;;;;;38.60;22.50;;;4.80;92.30;;;;;;5043334;28;20438;-73
2021/01/26 10:47:32;;;;;;;36.63;21.97;;;5.00;92.30;;;;;;5034542;28;20045;-74
2021/01/26 10:50:07;;;;;;;34.33;21.47;;;5.10;92.00;;;;;;5035490;28;20036;-74
2021/01/26 10:52:41;;;;;;;31.53;20.40;;;5.40;91.90;;;;;;5050971;28;20489;-73
2021/01/26 10:55:10;;;;;;;31.57;19.37;;;5.70;91.40;;;;;;5051424;28;20455;-74
2021/01/26 10:57:38;;;;;;;30.90;19.97;;;5.80;90.80;;;;;;5050799;28;20040;-73
2021/01/26 11:00:06;;;;;;;30.53;19.33;;;5.70;90.60;;;;;;5050916;28;20044;-74
2021/01/26 11:02:32;;;;;;;28.90;17.70;;;5.70;90.50;;;;;;5049915;28;20108;-73
2021/01/26 11:04:58;;;;;;;26.90;17.47;;;5.80;91.10;;;;;;5051417;28;20033;-73
2021/01/26 11:07:24;;;;;;;27.80;18.20;;;6.20;90.90;;;;;;5049802;28;20044;-74
2021/01/26 11:09:51;;;;;;;27.50;17.07;;;6.80;90.60;;;;;;5050745;28;20045;-73
2021/01/26 11:12:21;;;;;;;25.57;16.90;;;7.30;90.50;;;;;;5050885;28;20090;-74
2021/01/26 11:14:48;;;;;;;26.70;16.73;;;7.60;89.50;;;;;;5050781;28;20351;-74
2021/01/26 11:17:15;;;;;;;22.43;14.90;;;7.50;88.40;;;;;;5051116;28;20044;-74
2021/01/26 11:19:42;;;;;;;22.33;14.93;;;7.30;86.90;;;;;;5050413;28;20485;-74
2021/01/26 11:22:10;;;;;;;25.93;16.27;;;6.80;85.80;;;;;;5050254;28;20029;-73
2021/01/26 11:24:36;;;;;;;24.47;15.90;;;6.40;86.40;;;;;;5050978;28;20120;-74
2021/01/26 11:27:02;;;;;;;25.77;16.33;;;6.20;87.80;;;;;;5038449;28;20128;-73
2021/01/26 11:29:28;;;;;;;24.30;15.53;;;6.10;87.50;;;;;;5047187;28;20037;-74
2021/01/26 11:31:53;;;;;;;25.83;16.03;;;5.90;86.50;;;;;;5050502;28;20047;-72
2021/01/26 11:34:19;;;;;;;24.93;16.33;;;5.80;87.60;;;;;;5049378;28;20401;-73
2021/01/26 11:36:45;;;;;;;25.53;15.23;;;5.90;88.70;;;;;;5040390;28;20505;-74
2021/01/26 11:39:11;;;;;;;23.43;14.93;;;6.10;89.00;;;;;;5044186;28;20084;-72
2021/01/26 11:41:38;;;;;;;22.33;14.47;;;6.30;88.80;;;;;;5033779;28;20038;-73
2021/01/26 11:44:05;;;;;;;24.10;14.30;;;6.50;88.90;;;;;;5046156;28;20044;-73
2021/01/26 11:46:31;;;;;;;22.53;12.60;;;7.00;89.20;;;;;;5038357;28;20041;-73
2021/01/26 11:48:57;;;;;;;21.10;12.97;;;7.50;88.40;;;;;;5038728;28;20040;-73
2021/01/26 11:51:23;;;;;;;19.07;12.30;;;7.60;86.70;;;;;;5045497;28;20091;-74
2021/01/26 11:53:49;;;;;;;20.23;12.73;;;7.40;83.90;;;;;;5033747;28;20049;-73
2021/01/26 11:56:16;;;;;;;22.83;13.23;;;6.90;84.00;;;;;;5044698;28;20037;-72
2021/01/26 11:58:42;;;;;;;22.53;12.73;;;6.60;84.40;;;;;;5038940;28;20499;-74
2021/01/26 12:01:08;;;;;;;20.27;12.50;;;6.30;84.80;;;;;;5035814;28;20117;-72
2021/01/26 12:03:34;;;;;;;22.37;12.10;;;6.10;85.50;;;;;;5046442;28;20037;-73
2021/01/26 12:06:00;;;;;;;22.07;12.10;;;6.00;85.40;;;;;;5034481;28;20072;-73
2021/01/26 12:08:26;;;;;;;21.53;12.97;;;6.00;86.70;;;;;;5041519;28;20056;-73
2021/01/26 12:10:52;;;;;;;19.07;12.00;;;6.10;86.90;;;;;;5030475;28;20116;-73
2021/01/26 12:13:18;;;;;;;19.00;12.07;;;6.20;87.30;;;;;;5029909;28;20037;-73
2021/01/26 12:15:44;;;;;;;22.90;12.53;;;6.30;86.20;;;;;;5050059;28;20502;-73
2021/01/26 12:18:12;;;;;;;19.47;10.80;;;6.40;86.60;;;;;;5039283;28;20166;-72
2021/01/26 12:20:38;;;;;;;19.00;11.13;;;6.50;86.30;;;;;;5025873;28;20030;-73
2021/01/26 12:23:05;;;;;;;18.20;10.73;;;6.50;85.40;;;;;;5035385;28;20021;-73
2021/01/26 12:25:33;;;;;;;18.17;10.47;;;6.50;84.40;;;;;;5032485;28;20141;-73
2021/01/26 12:27:59;;;;;;;18.93;9.70;;;6.80;86.20;;;;;;5053598;28;20550;-73
2021/01/26 12:30:26;;;;;;;16.13;9.77;;;7.60;86.90;;;;;;5045777;28;20493;-74
2021/01/26 12:32:52;;;;;;;15.33;8.97;;;8.30;85.10;;;;;;5019793;28;20044;-74
2021/01/26 12:35:23;;;;;;;15.13;8.53;;;9.30;85.60;;;;;;5039005;28;20030;-74
2021/01/26 12:37:49;;;;;;;13.60;7.68;;;10.30;84.20;;;;;;5032441;28;20064;-72
2021/01/26 12:40:15;;;;;;;12.82;7.45;;;11.10;82.90;;;;;;5033587;28;20561;-73
2021/01/26 12:42:42;;;;;;;16.15;8.50;;;11.20;79.80;;;;;;5034067;28;20030;-73
2021/01/26 12:45:10;;;;;;;12.77;7.57;;;10.60;74.90;;;;;;5033786;28;20038;-73
2021/01/26 12:47:36;;;;;;;14.80;7.55;;;9.80;74.30;;;;;;5033867;28;20448;-73
2021/01/26 12:50:07;;;;;;;14.10;7.57;;;9.00;74.70;;;;;;5033859;28;20049;-72
2021/01/26 12:52:33;;;;;;;12.93;7.30;;;8.30;75.20;;;;;;5033238;28;20040;-72
2021/01/26 12:54:59;;;;;;;13.90;7.33;;;7.70;76.40;;;;;;5031432;28;20033;-74
2021/01/26 12:57:25;;;;;;;13.37;7.70;;;7.20;77.00;;;;;;5015832;28;20045;-73
2021/01/26 12:59:52;;;;;;;12.53;5.93;;;6.80;77.80;;;;;;5033619;28;20045;-73
2021/01/26 13:02:22;;;;;;;13.07;6.30;;;6.50;78.50;;;;;;5048137;28;20037;-72
2021/01/26 13:04:48;;;;;;;13.15;5.95;;;6.30;79.60;;;;;;5053199;28;20037;-73
2021/01/26 13:07:17;;;;;;;12.47;5.67;;;6.20;80.60;;;;;;5052626;28;20074;-72